sensor_id;sensor_type;location;lat;lon;timestamp;P1;durP1;ratioP1;P2;durP2;ratioP2
74512;SDS011;62992;52.052;8.550;2023-02-28T00:00:11;9.50;;;5.45;;
74512;SDS011;62992;52.052;8.550;2023-02-28T00:02:56;12.68;;;6.60;;
74512;SDS011;62992;52.052;8.550;2023-02-28T00:05:40;12.43;;;6.05;;
74512;SDS011;62992;52.052;8.550;2023-02-28T00:08:25;11.82;;;5.75;;
74512;SDS011;62992;52.052;8.550;2023-02-28T00:11:11;10.80;;;5.75;;
74512;SDS011;62992;52.052;8.550;2023-02-28T00:13:57;14.38;;;5.97;;
74512;SDS011;62992;52.052;8.550;2023-02-28T00:16:42;11.80;;;5.40;;
74512;SDS011;62992;52.052;8.550;2023-02-28T00:19:26;10.80;;;5.38;;
74512;SDS011;62992;52.052;8.550;2023-02-28T00:22:10;11.77;;;5.72;;
74512;SDS011;62992;52.052;8.550;2023-02-28T00:24:54;12.68;;;6.10;;
74512;SDS011;62992;52.052;8.550;2023-02-28T00:27:38;11.43;;;5.95;;
74512;SDS011;62992;52.052;8.550;2023-02-28T00:30:23;14.13;;;5.75;;
74512;SDS011;62992;52.052;8.550;2023-02-28T00:33:07;14.23;;;5.85;;
74512;SDS011;62992;52.052;8.550;2023-02-28T00:35:52;11.48;;;6.15;;
74512;SDS011;62992;52.052;8.550;2023-02-28T00:38:44;9.10;;;4.72;;
74512;SDS011;62992;52.052;8.550;2023-02-28T00:41:28;11.23;;;5.57;;
74512;SDS011;62992;52.052;8.550;2023-02-28T00:44:12;9.52;;;5.13;;
74512;SDS011;62992;52.052;8.550;2023-02-28T00:46:56;11.35;;;5.50;;
74512;SDS011;62992;52.052;8.550;2023-02-28T00:49:41;10.63;;;5.57;;
74512;SDS011;62992;52.052;8.550;2023-02-28T00:52:25;8.30;;;4.53;;
74512;SDS011;62992;52.052;8.550;2023-02-28T00:55:09;8.85;;;5.15;;
74512;SDS011;62992;52.052;8.550;2023-02-28T00:57:54;11.88;;;5.00;;
74512;SDS011;62992;52.052;8.550;2023-02-28T01:00:38;10.00;;;5.28;;
74512;SDS011;62992;52.052;8.550;2023-02-28T01:03:22;8.95;;;5.03;;
74512;SDS011;62992;52.052;8.550;2023-02-28T01:06:07;19.70;;;5.63;;
74512;SDS011;62992;52.052;8.550;2023-02-28T01:08:51;11.50;;;5.97;;
74512;SDS011;62992;52.052;8.550;2023-02-28T01:11:35;8.35;;;4.78;;
74512;SDS011;62992;52.052;8.550;2023-02-28T01:14:19;10.73;;;5.10;;
74512;SDS011;62992;52.052;8.550;2023-02-28T01:17:03;9.52;;;5.25;;
74512;SDS011;62992;52.052;8.550;2023-02-28T01:19:48;9.48;;;5.47;;
74512;SDS011;62992;52.052;8.550;2023-02-28T01:22:32;9.38;;;4.78;;
74512;SDS011;62992;52.052;8.550;2023-02-28T01:25:18;11.10;;;5.28;;
74512;SDS011;62992;52.052;8.550;2023-02-28T01:28:02;8.98;;;5.00;;
74512;SDS011;62992;52.052;8.550;2023-02-28T01:30:47;8.15;;;4.60;;
74512;SDS011;62992;52.052;8.550;2023-02-28T01:33:32;11.63;;;5.18;;
74512;SDS011;62992;52.052;8.550;2023-02-28T01:36:18;7.50;;;4.20;;
74512;SDS011;62992;52.052;8.550;2023-02-28T01:39:05;9.10;;;4.75;;
74512;SDS011;62992;52.052;8.550;2023-02-28T01:41:49;9.27;;;4.93;;
74512;SDS011;62992;52.052;8.550;2023-02-28T01:47:39;9.20;;;5.00;;
74512;SDS011;62992;52.052;8.550;2023-02-28T01:50:27;8.73;;;4.68;;
74512;SDS011;62992;52.052;8.550;2023-02-28T01:53:16;8.38;;;4.95;;
74512;SDS011;62992;52.052;8.550;2023-02-28T01:56:05;7.95;;;4.60;;
74512;SDS011;62992;52.052;8.550;2023-02-28T01:58:52;9.90;;;4.43;;
74512;SDS011;62992;52.052;8.550;2023-02-28T02:01:37;7.50;;;4.72;;
74512;SDS011;62992;52.052;8.550;2023-02-28T02:04:21;8.10;;;4.60;;
74512;SDS011;62992;52.052;8.550;2023-02-28T02:07:09;7.85;;;4.75;;
74512;SDS011;62992;52.052;8.550;2023-02-28T02:20:02;10.88;;;4.63;;
74512;SDS011;62992;52.052;8.550;2023-02-28T02:23:22;10.30;;;4.85;;
74512;SDS011;62992;52.052;8.550;2023-02-28T02:29:30;6.55;;;4.43;;
74512;SDS011;62992;52.052;8.550;2023-02-28T02:38:44;7.72;;;4.35;;
74512;SDS011;62992;52.052;8.550;2023-02-28T02:44:41;7.10;;;4.45;;
74512;SDS011;62992;52.052;8.550;2023-02-28T02:47:30;7.85;;;4.95;;
74512;SDS011;62992;52.052;8.550;2023-02-28T02:50:17;7.47;;;4.68;;
74512;SDS011;62992;52.052;8.550;2023-02-28T02:53:07;5.90;;;3.95;;
74512;SDS011;62992;52.052;8.550;2023-02-28T02:55:52;7.32;;;4.63;;
74512;SDS011;62992;52.052;8.550;2023-02-28T02:58:40;7.68;;;5.30;;
74512;SDS011;62992;52.052;8.550;2023-02-28T03:01:26;11.05;;;5.40;;
74512;SDS011;62992;52.052;8.550;2023-02-28T03:04:13;6.80;;;4.60;;
74512;SDS011;62992;52.052;8.550;2023-02-28T03:07:01;7.10;;;4.47;;
74512;SDS011;62992;52.052;8.550;2023-02-28T03:09:52;8.35;;;4.60;;
74512;SDS011;62992;52.052;8.550;2023-02-28T03:12:41;8.48;;;4.57;;
74512;SDS011;62992;52.052;8.550;2023-02-28T03:15:48;6.10;;;4.60;;
74512;SDS011;62992;52.052;8.550;2023-02-28T03:28:14;7.70;;;4.57;;
74512;SDS011;62992;52.052;8.550;2023-02-28T03:31:07;7.65;;;4.53;;
74512;SDS011;62992;52.052;8.550;2023-02-28T03:34:04;9.57;;;5.10;;
74512;SDS011;62992;52.052;8.550;2023-02-28T03:36:54;6.32;;;3.72;;
74512;SDS011;62992;52.052;8.550;2023-02-28T03:39:43;10.05;;;4.53;;
74512;SDS011;62992;52.052;8.550;2023-02-28T03:42:34;8.75;;;4.55;;
74512;SDS011;62992;52.052;8.550;2023-02-28T03:45:21;6.93;;;4.28;;
74512;SDS011;62992;52.052;8.550;2023-02-28T03:48:11;10.50;;;3.83;;
74512;SDS011;62992;52.052;8.550;2023-02-28T03:51:20;6.68;;;4.10;;
74512;SDS011;62992;52.052;8.550;2023-02-28T03:54:08;9.10;;;4.53;;
74512;SDS011;62992;52.052;8.550;2023-02-28T03:57:06;9.45;;;4.88;;
74512;SDS011;62992;52.052;8.550;2023-02-28T04:00:15;7.32;;;4.53;;
74512;SDS011;62992;52.052;8.550;2023-02-28T04:03:05;7.93;;;4.28;;
74512;SDS011;62992;52.052;8.550;2023-02-28T04:05:50;7.55;;;4.63;;
74512;SDS011;62992;52.052;8.550;2023-02-28T04:08:36;8.15;;;4.85;;
74512;SDS011;62992;52.052;8.550;2023-02-28T04:11:24;10.25;;;4.90;;
74512;SDS011;62992;52.052;8.550;2023-02-28T04:14:15;9.30;;;4.10;;
74512;SDS011;62992;52.052;8.550;2023-02-28T04:16:59;8.30;;;4.80;;
74512;SDS011;62992;52.052;8.550;2023-02-28T04:19:43;7.63;;;5.03;;
74512;SDS011;62992;52.052;8.550;2023-02-28T04:22:27;7.97;;;4.63;;
74512;SDS011;62992;52.052;8.550;2023-02-28T04:25:11;9.68;;;4.85;;
74512;SDS011;62992;52.052;8.550;2023-02-28T04:27:55;10.48;;;5.05;;
74512;SDS011;62992;52.052;8.550;2023-02-28T04:30:39;8.13;;;4.45;;
74512;SDS011;62992;52.052;8.550;2023-02-28T04:33:24;7.20;;;4.57;;
74512;SDS011;62992;52.052;8.550;2023-02-28T04:36:08;7.75;;;5.10;;
74512;SDS011;62992;52.052;8.550;2023-02-28T04:38:52;8.00;;;4.03;;
74512;SDS011;62992;52.052;8.550;2023-02-28T04:41:37;7.65;;;4.45;;
74512;SDS011;62992;52.052;8.550;2023-02-28T04:44:22;8.55;;;4.97;;
74512;SDS011;62992;52.052;8.550;2023-02-28T04:47:06;8.85;;;5.07;;
74512;SDS011;62992;52.052;8.550;2023-02-28T04:49:50;7.78;;;4.10;;
74512;SDS011;62992;52.052;8.550;2023-02-28T04:52:34;8.98;;;5.00;;
74512;SDS011;62992;52.052;8.550;2023-02-28T04:55:18;7.65;;;5.13;;
74512;SDS011;62992;52.052;8.550;2023-02-28T04:58:03;10.48;;;4.88;;
74512;SDS011;62992;52.052;8.550;2023-02-28T05:00:47;9.15;;;4.78;;
74512;SDS011;62992;52.052;8.550;2023-02-28T05:03:32;8.02;;;4.68;;
74512;SDS011;62992;52.052;8.550;2023-02-28T05:06:16;10.98;;;5.35;;
74512;SDS011;62992;52.052;8.550;2023-02-28T05:09:01;10.05;;;6.38;;
74512;SDS011;62992;52.052;8.550;2023-02-28T05:11:46;9.82;;;4.35;;
74512;SDS011;62992;52.052;8.550;2023-02-28T05:14:30;10.32;;;4.95;;
74512;SDS011;62992;52.052;8.550;2023-02-28T05:17:14;8.93;;;5.03;;
74512;SDS011;62992;52.052;8.550;2023-02-28T05:19:58;10.13;;;4.93;;
74512;SDS011;62992;52.052;8.550;2023-02-28T05:22:42;11.05;;;5.55;;
74512;SDS011;62992;52.052;8.550;2023-02-28T05:25:27;11.07;;;4.78;;
74512;SDS011;62992;52.052;8.550;2023-02-28T05:28:11;8.93;;;5.40;;
74512;SDS011;62992;52.052;8.550;2023-02-28T05:30:55;8.45;;;5.07;;
74512;SDS011;62992;52.052;8.550;2023-02-28T05:33:39;8.15;;;4.93;;
74512;SDS011;62992;52.052;8.550;2023-02-28T05:36:23;8.35;;;4.85;;
74512;SDS011;62992;52.052;8.550;2023-02-28T05:39:07;8.15;;;5.03;;
74512;SDS011;62992;52.052;8.550;2023-02-28T05:41:56;8.50;;;5.22;;
74512;SDS011;62992;52.052;8.550;2023-02-28T05:44:40;8.80;;;4.93;;
74512;SDS011;62992;52.052;8.550;2023-02-28T05:47:25;7.65;;;5.00;;
74512;SDS011;62992;52.052;8.550;2023-02-28T05:50:09;8.23;;;5.40;;
74512;SDS011;62992;52.052;8.550;2023-02-28T05:52:54;7.78;;;4.70;;
74512;SDS011;62992;52.052;8.550;2023-02-28T05:55:38;8.32;;;5.30;;
74512;SDS011;62992;52.052;8.550;2023-02-28T05:58:23;9.10;;;5.07;;
74512;SDS011;62992;52.052;8.550;2023-02-28T06:01:19;13.25;;;5.40;;
74512;SDS011;62992;52.052;8.550;2023-02-28T06:04:16;8.48;;;4.93;;
74512;SDS011;62992;52.052;8.550;2023-02-28T06:07:02;8.48;;;4.78;;
74512;SDS011;62992;52.052;8.550;2023-02-28T06:09:46;10.32;;;6.10;;
74512;SDS011;62992;52.052;8.550;2023-02-28T06:12:31;12.18;;;6.05;;
74512;SDS011;62992;52.052;8.550;2023-02-28T06:15:15;12.10;;;6.45;;
74512;SDS011;62992;52.052;8.550;2023-02-28T06:18:00;10.68;;;6.40;;
74512;SDS011;62992;52.052;8.550;2023-02-28T06:20:44;11.15;;;6.63;;
74512;SDS011;62992;52.052;8.550;2023-02-28T06:23:36;12.20;;;7.28;;
74512;SDS011;62992;52.052;8.550;2023-02-28T06:26:21;12.52;;;6.35;;
74512;SDS011;62992;52.052;8.550;2023-02-28T06:29:05;9.40;;;5.68;;
74512;SDS011;62992;52.052;8.550;2023-02-28T06:31:49;10.75;;;5.43;;
74512;SDS011;62992;52.052;8.550;2023-02-28T06:34:33;8.77;;;5.30;;
74512;SDS011;62992;52.052;8.550;2023-02-28T06:37:17;9.45;;;5.90;;
74512;SDS011;62992;52.052;8.550;2023-02-28T06:40:02;10.05;;;5.95;;
74512;SDS011;62992;52.052;8.550;2023-02-28T06:42:46;8.68;;;5.95;;
74512;SDS011;62992;52.052;8.550;2023-02-28T06:45:30;7.93;;;5.55;;
74512;SDS011;62992;52.052;8.550;2023-02-28T06:48:14;8.57;;;6.05;;
74512;SDS011;62992;52.052;8.550;2023-02-28T06:51:05;8.73;;;4.78;;
74512;SDS011;62992;52.052;8.550;2023-02-28T06:53:55;8.98;;;4.90;;
74512;SDS011;62992;52.052;8.550;2023-02-28T06:56:39;10.32;;;5.35;;
74512;SDS011;62992;52.052;8.550;2023-02-28T06:59:24;8.35;;;4.93;;
74512;SDS011;62992;52.052;8.550;2023-02-28T07:02:07;8.95;;;5.00;;
74512;SDS011;62992;52.052;8.550;2023-02-28T07:04:52;8.63;;;5.47;;
74512;SDS011;62992;52.052;8.550;2023-02-28T07:07:36;6.78;;;4.97;;
74512;SDS011;62992;52.052;8.550;2023-02-28T07:10:22;7.82;;;4.97;;
74512;SDS011;62992;52.052;8.550;2023-02-28T07:13:06;8.98;;;4.72;;
74512;SDS011;62992;52.052;8.550;2023-02-28T07:18:40;7.68;;;5.40;;
74512;SDS011;62992;52.052;8.550;2023-02-28T07:21:24;7.85;;;5.65;;
74512;SDS011;62992;52.052;8.550;2023-02-28T07:24:09;10.15;;;5.65;;
74512;SDS011;62992;52.052;8.550;2023-02-28T07:26:53;8.47;;;5.53;;
74512;SDS011;62992;52.052;8.550;2023-02-28T07:29:38;10.93;;;5.75;;
74512;SDS011;62992;52.052;8.550;2023-02-28T07:32:22;8.63;;;5.35;;
74512;SDS011;62992;52.052;8.550;2023-02-28T07:35:06;10.82;;;6.10;;
74512;SDS011;62992;52.052;8.550;2023-02-28T07:37:51;9.07;;;6.07;;
74512;SDS011;62992;52.052;8.550;2023-02-28T07:40:35;9.40;;;6.50;;
74512;SDS011;62992;52.052;8.550;2023-02-28T07:43:19;10.00;;;5.97;;
74512;SDS011;62992;52.052;8.550;2023-02-28T07:46:04;7.38;;;5.28;;
74512;SDS011;62992;52.052;8.550;2023-02-28T07:48:50;8.30;;;5.63;;
74512;SDS011;62992;52.052;8.550;2023-02-28T07:51:34;7.22;;;4.65;;
74512;SDS011;62992;52.052;8.550;2023-02-28T07:54:18;5.93;;;4.70;;
74512;SDS011;62992;52.052;8.550;2023-02-28T07:57:02;9.13;;;4.95;;
74512;SDS011;62992;52.052;8.550;2023-02-28T07:59:46;7.90;;;5.60;;
74512;SDS011;62992;52.052;8.550;2023-02-28T08:02:30;7.93;;;5.55;;
74512;SDS011;62992;52.052;8.550;2023-02-28T08:05:14;8.25;;;5.68;;
74512;SDS011;62992;52.052;8.550;2023-02-28T08:07:59;11.55;;;5.90;;
74512;SDS011;62992;52.052;8.550;2023-02-28T08:10:43;6.65;;;4.88;;
74512;SDS011;62992;52.052;8.550;2023-02-28T08:13:28;9.18;;;6.10;;
74512;SDS011;62992;52.052;8.550;2023-02-28T08:16:13;6.78;;;4.60;;
74512;SDS011;62992;52.052;8.550;2023-02-28T08:19:00;5.88;;;4.95;;
74512;SDS011;62992;52.052;8.550;2023-02-28T08:21:44;6.43;;;4.50;;
74512;SDS011;62992;52.052;8.550;2023-02-28T08:24:28;6.07;;;4.85;;
74512;SDS011;62992;52.052;8.550;2023-02-28T08:27:12;6.03;;;5.05;;
74512;SDS011;62992;52.052;8.550;2023-02-28T08:29:56;6.05;;;4.82;;
74512;SDS011;62992;52.052;8.550;2023-02-28T08:32:41;6.32;;;4.65;;
74512;SDS011;62992;52.052;8.550;2023-02-28T08:35:24;7.68;;;5.10;;
74512;SDS011;62992;52.052;8.550;2023-02-28T08:38:08;6.63;;;4.40;;
74512;SDS011;62992;52.052;8.550;2023-02-28T08:40:59;6.20;;;4.38;;
74512;SDS011;62992;52.052;8.550;2023-02-28T08:43:45;5.75;;;4.20;;
74512;SDS011;62992;52.052;8.550;2023-02-28T08:46:30;6.72;;;4.57;;
74512;SDS011;62992;52.052;8.550;2023-02-28T08:49:13;5.78;;;4.50;;
74512;SDS011;62992;52.052;8.550;2023-02-28T08:51:57;7.22;;;4.28;;
74512;SDS011;62992;52.052;8.550;2023-02-28T08:54:41;4.95;;;4.03;;
74512;SDS011;62992;52.052;8.550;2023-02-28T08:57:25;5.00;;;4.18;;
74512;SDS011;62992;52.052;8.550;2023-02-28T09:00:11;6.03;;;4.55;;
74512;SDS011;62992;52.052;8.550;2023-02-28T09:02:57;6.72;;;4.53;;
74512;SDS011;62992;52.052;8.550;2023-02-28T09:05:41;7.15;;;4.68;;
74512;SDS011;62992;52.052;8.550;2023-02-28T09:08:25;5.82;;;4.57;;
74512;SDS011;62992;52.052;8.550;2023-02-28T09:11:12;6.80;;;4.20;;
74512;SDS011;62992;52.052;8.550;2023-02-28T09:13:57;6.00;;;4.03;;
74512;SDS011;62992;52.052;8.550;2023-02-28T09:16:43;6.65;;;4.10;;
74512;SDS011;62992;52.052;8.550;2023-02-28T09:19:27;5.25;;;3.90;;
74512;SDS011;62992;52.052;8.550;2023-02-28T09:22:11;5.43;;;3.30;;
74512;SDS011;62992;52.052;8.550;2023-02-28T09:24:55;4.82;;;3.10;;
74512;SDS011;62992;52.052;8.550;2023-02-28T09:27:39;4.97;;;3.58;;
74512;SDS011;62992;52.052;8.550;2023-02-28T09:30:23;4.55;;;2.80;;
74512;SDS011;62992;52.052;8.550;2023-02-28T09:33:07;3.78;;;2.97;;
74512;SDS011;62992;52.052;8.550;2023-02-28T09:35:57;3.55;;;2.90;;
74512;SDS011;62992;52.052;8.550;2023-02-28T09:38:44;5.18;;;3.20;;
74512;SDS011;62992;52.052;8.550;2023-02-28T09:41:37;6.13;;;2.67;;
74512;SDS011;62992;52.052;8.550;2023-02-28T09:44:41;4.38;;;2.63;;
74512;SDS011;62992;52.052;8.550;2023-02-28T09:47:39;5.20;;;3.30;;
74512;SDS011;62992;52.052;8.550;2023-02-28T09:53:27;4.13;;;2.90;;
74512;SDS011;62992;52.052;8.550;2023-02-28T09:56:24;3.95;;;2.92;;
74512;SDS011;62992;52.052;8.550;2023-02-28T09:59:30;4.72;;;2.38;;
74512;SDS011;62992;52.052;8.550;2023-02-28T10:05:30;4.15;;;1.92;;
74512;SDS011;62992;52.052;8.550;2023-02-28T10:11:15;2.67;;;1.70;;
74512;SDS011;62992;52.052;8.550;2023-02-28T10:14:13;4.47;;;3.05;;
74512;SDS011;62992;52.052;8.550;2023-02-28T10:17:04;3.00;;;1.58;;
74512;SDS011;62992;52.052;8.550;2023-02-28T10:23:21;2.22;;;1.30;;
74512;SDS011;62992;52.052;8.550;2023-02-28T10:26:12;1.27;;;1.00;;
74512;SDS011;62992;52.052;8.550;2023-02-28T10:29:02;2.30;;;0.90;;
74512;SDS011;62992;52.052;8.550;2023-02-28T10:31:46;2.95;;;0.93;;
74512;SDS011;62992;52.052;8.550;2023-02-28T10:34:30;1.30;;;0.90;;
74512;SDS011;62992;52.052;8.550;2023-02-28T10:37:14;1.38;;;0.85;;
74512;SDS011;62992;52.052;8.550;2023-02-28T10:39:59;2.58;;;1.05;;
74512;SDS011;62992;52.052;8.550;2023-02-28T10:46:00;4.10;;;0.90;;
74512;SDS011;62992;52.052;8.550;2023-02-28T10:48:50;2.63;;;1.00;;
74512;SDS011;62992;52.052;8.550;2023-02-28T10:51:45;1.98;;;0.95;;
74512;SDS011;62992;52.052;8.550;2023-02-28T10:54:36;2.20;;;0.90;;
74512;SDS011;62992;52.052;8.550;2023-02-28T10:57:22;1.63;;;0.80;;
74512;SDS011;62992;52.052;8.550;2023-02-28T11:00:17;2.13;;;1.00;;
74512;SDS011;62992;52.052;8.550;2023-02-28T11:03:23;1.13;;;1.00;;
74512;SDS011;62992;52.052;8.550;2023-02-28T11:06:10;2.53;;;1.00;;
74512;SDS011;62992;52.052;8.550;2023-02-28T11:09:00;3.13;;;1.27;;
74512;SDS011;62992;52.052;8.550;2023-02-28T11:11:48;2.47;;;0.90;;
74512;SDS011;62992;52.052;8.550;2023-02-28T11:14:35;1.45;;;0.85;;
74512;SDS011;62992;52.052;8.550;2023-02-28T11:17:30;2.60;;;1.35;;
74512;SDS011;62992;52.052;8.550;2023-02-28T11:23:10;1.50;;;0.77;;
74512;SDS011;62992;52.052;8.550;2023-02-28T11:25:58;1.65;;;0.82;;
74512;SDS011;62992;52.052;8.550;2023-02-28T11:28:45;1.13;;;0.73;;
74512;SDS011;62992;52.052;8.550;2023-02-28T11:31:29;3.42;;;1.00;;
74512;SDS011;62992;52.052;8.550;2023-02-28T11:37:10;1.88;;;0.80;;
74512;SDS011;62992;52.052;8.550;2023-02-28T11:40:00;1.63;;;0.90;;
74512;SDS011;62992;52.052;8.550;2023-02-28T11:58:21;0.95;;;0.70;;
74512;SDS011;62992;52.052;8.550;2023-02-28T12:01:36;1.13;;;0.75;;
74512;SDS011;62992;52.052;8.550;2023-02-28T12:04:45;2.13;;;1.20;;
74512;SDS011;62992;52.052;8.550;2023-02-28T12:11:05;2.58;;;1.17;;
74512;SDS011;62992;52.052;8.550;2023-02-28T12:20:24;3.00;;;1.40;;
74512;SDS011;62992;52.052;8.550;2023-02-28T12:23:42;2.38;;;1.30;;
74512;SDS011;62992;52.052;8.550;2023-02-28T12:26:41;2.35;;;1.75;;
74512;SDS011;62992;52.052;8.550;2023-02-28T12:29:32;4.50;;;1.35;;
74512;SDS011;62992;52.052;8.550;2023-02-28T12:32:33;2.38;;;1.20;;
74512;SDS011;62992;52.052;8.550;2023-02-28T12:35:26;2.27;;;0.97;;
74512;SDS011;62992;52.052;8.550;2023-02-28T12:38:19;2.50;;;1.30;;
74512;SDS011;62992;52.052;8.550;2023-02-28T12:44:00;2.70;;;1.27;;
74512;SDS011;62992;52.052;8.550;2023-02-28T12:46:50;1.60;;;1.25;;
74512;SDS011;62992;52.052;8.550;2023-02-28T12:55:53;2.15;;;1.27;;
74512;SDS011;62992;52.052;8.550;2023-02-28T12:58:56;2.53;;;1.20;;
74512;SDS011;62992;52.052;8.550;2023-02-28T13:02:28;2.22;;;1.08;;
74512;SDS011;62992;52.052;8.550;2023-02-28T13:05:32;2.60;;;1.60;;
74512;SDS011;62992;52.052;8.550;2023-02-28T13:11:43;4.53;;;1.20;;
74512;SDS011;62992;52.052;8.550;2023-02-28T13:14:38;2.92;;;1.50;;
74512;SDS011;62992;52.052;8.550;2023-02-28T13:17:23;3.40;;;1.75;;
74512;SDS011;62992;52.052;8.550;2023-02-28T13:20:26;3.03;;;1.60;;
74512;SDS011;62992;52.052;8.550;2023-02-28T13:26:24;2.05;;;1.17;;
74512;SDS011;62992;52.052;8.550;2023-02-28T13:29:37;2.90;;;1.38;;
74512;SDS011;62992;52.052;8.550;2023-02-28T13:37:54;3.40;;;1.48;;
74512;SDS011;62992;52.052;8.550;2023-02-28T13:41:25;2.65;;;1.30;;
74512;SDS011;62992;52.052;8.550;2023-02-28T13:44:23;4.43;;;1.38;;
74512;SDS011;62992;52.052;8.550;2023-02-28T13:47:19;3.05;;;1.42;;
74512;SDS011;62992;52.052;8.550;2023-02-28T13:56:53;2.90;;;1.63;;
74512;SDS011;62992;52.052;8.550;2023-02-28T14:03:36;2.25;;;1.48;;
74512;SDS011;62992;52.052;8.550;2023-02-28T14:06:34;3.38;;;1.85;;
74512;SDS011;62992;52.052;8.550;2023-02-28T14:09:24;3.78;;;1.40;;
74512;SDS011;62992;52.052;8.550;2023-02-28T14:24:24;2.95;;;1.23;;
74512;SDS011;62992;52.052;8.550;2023-02-28T14:36:57;2.92;;;1.70;;
74512;SDS011;62992;52.052;8.550;2023-02-28T14:39:44;4.90;;;1.90;;
74512;SDS011;62992;52.052;8.550;2023-02-28T14:42:35;5.10;;;1.60;;
74512;SDS011;62992;52.052;8.550;2023-02-28T14:45:31;4.07;;;1.35;;
74512;SDS011;62992;52.052;8.550;2023-02-28T14:48:17;1.70;;;1.40;;
74512;SDS011;62992;52.052;8.550;2023-02-28T14:51:03;2.75;;;1.50;;
74512;SDS011;62992;52.052;8.550;2023-02-28T14:53:49;5.85;;;1.75;;
74512;SDS011;62992;52.052;8.550;2023-02-28T14:56:39;2.55;;;1.42;;
74512;SDS011;62992;52.052;8.550;2023-02-28T14:59:31;2.70;;;1.55;;
74512;SDS011;62992;52.052;8.550;2023-02-28T15:02:18;4.65;;;1.70;;
74512;SDS011;62992;52.052;8.550;2023-02-28T15:13:51;2.00;;;1.38;;
74512;SDS011;62992;52.052;8.550;2023-02-28T15:16:39;2.00;;;1.48;;
74512;SDS011;62992;52.052;8.550;2023-02-28T15:19:28;2.50;;;1.73;;
74512;SDS011;62992;52.052;8.550;2023-02-28T15:22:15;2.97;;;1.70;;
74512;SDS011;62992;52.052;8.550;2023-02-28T15:25:01;3.55;;;1.92;;
74512;SDS011;62992;52.052;8.550;2023-02-28T15:27:54;5.13;;;1.92;;
74512;SDS011;62992;52.052;8.550;2023-02-28T15:30:49;3.92;;;2.00;;
74512;SDS011;62992;52.052;8.550;2023-02-28T15:33:47;3.95;;;1.42;;
74512;SDS011;62992;52.052;8.550;2023-02-28T15:36:36;1.60;;;1.50;;
74512;SDS011;62992;52.052;8.550;2023-02-28T15:39:22;2.60;;;1.95;;
74512;SDS011;62992;52.052;8.550;2023-02-28T15:42:22;1.98;;;1.50;;
74512;SDS011;62992;52.052;8.550;2023-02-28T15:45:26;4.15;;;1.85;;
74512;SDS011;62992;52.052;8.550;2023-02-28T15:48:17;4.88;;;2.05;;
74512;SDS011;62992;52.052;8.550;2023-02-28T15:51:07;6.15;;;2.15;;
74512;SDS011;62992;52.052;8.550;2023-02-28T15:53:59;4.38;;;2.10;;
74512;SDS011;62992;52.052;8.550;2023-02-28T15:56:46;4.43;;;2.05;;
74512;SDS011;62992;52.052;8.550;2023-02-28T15:59:35;3.58;;;2.15;;
74512;SDS011;62992;52.052;8.550;2023-02-28T16:02:31;3.35;;;1.85;;
74512;SDS011;62992;52.052;8.550;2023-02-28T16:05:26;4.93;;;1.92;;
74512;SDS011;62992;52.052;8.550;2023-02-28T16:08:16;2.22;;;1.90;;
74512;SDS011;62992;52.052;8.550;2023-02-28T16:11:00;2.60;;;1.70;;
74512;SDS011;62992;52.052;8.550;2023-02-28T16:13:44;3.53;;;2.60;;
74512;SDS011;62992;52.052;8.550;2023-02-28T16:16:28;2.92;;;1.90;;
74512;SDS011;62992;52.052;8.550;2023-02-28T16:19:12;4.85;;;1.98;;
74512;SDS011;62992;52.052;8.550;2023-02-28T16:21:57;3.63;;;2.40;;
74512;SDS011;62992;52.052;8.550;2023-02-28T16:24:41;3.85;;;1.88;;
74512;SDS011;62992;52.052;8.550;2023-02-28T16:27:33;2.60;;;1.60;;
74512;SDS011;62992;52.052;8.550;2023-02-28T16:30:21;4.47;;;2.05;;
74512;SDS011;62992;52.052;8.550;2023-02-28T16:33:07;3.70;;;2.00;;
74512;SDS011;62992;52.052;8.550;2023-02-28T16:35:52;2.70;;;1.70;;
74512;SDS011;62992;52.052;8.550;2023-02-28T16:38:36;3.15;;;1.90;;
74512;SDS011;62992;52.052;8.550;2023-02-28T16:41:21;3.75;;;2.15;;
74512;SDS011;62992;52.052;8.550;2023-02-28T16:44:29;4.28;;;2.47;;
74512;SDS011;62992;52.052;8.550;2023-02-28T16:47:14;4.55;;;2.30;;
74512;SDS011;62992;52.052;8.550;2023-02-28T16:49:58;3.90;;;2.35;;
74512;SDS011;62992;52.052;8.550;2023-02-28T16:52:42;3.67;;;2.70;;
74512;SDS011;62992;52.052;8.550;2023-02-28T16:55:27;4.88;;;2.13;;
74512;SDS011;62992;52.052;8.550;2023-02-28T16:58:15;4.53;;;2.45;;
74512;SDS011;62992;52.052;8.550;2023-02-28T17:01:01;3.90;;;2.42;;
74512;SDS011;62992;52.052;8.550;2023-02-28T17:03:46;3.42;;;2.38;;
74512;SDS011;62992;52.052;8.550;2023-02-28T17:06:31;2.95;;;2.25;;
74512;SDS011;62992;52.052;8.550;2023-02-28T17:09:16;3.72;;;2.22;;
74512;SDS011;62992;52.052;8.550;2023-02-28T17:12:03;3.75;;;2.13;;
74512;SDS011;62992;52.052;8.550;2023-02-28T17:14:47;3.65;;;2.30;;
74512;SDS011;62992;52.052;8.550;2023-02-28T17:17:31;11.88;;;2.88;;
74512;SDS011;62992;52.052;8.550;2023-02-28T17:20:17;4.40;;;2.50;;
74512;SDS011;62992;52.052;8.550;2023-02-28T17:23:06;5.60;;;3.03;;
74512;SDS011;62992;52.052;8.550;2023-02-28T17:25:50;5.10;;;2.78;;
74512;SDS011;62992;52.052;8.550;2023-02-28T17:28:37;4.85;;;2.70;;
74512;SDS011;62992;52.052;8.550;2023-02-28T17:31:22;6.07;;;2.47;;
74512;SDS011;62992;52.052;8.550;2023-02-28T17:34:06;5.77;;;2.83;;
74512;SDS011;62992;52.052;8.550;2023-02-28T17:36:51;4.10;;;2.53;;
74512;SDS011;62992;52.052;8.550;2023-02-28T17:39:35;5.57;;;2.90;;
74512;SDS011;62992;52.052;8.550;2023-02-28T17:42:20;4.15;;;2.78;;
74512;SDS011;62992;52.052;8.550;2023-02-28T17:45:04;4.65;;;2.80;;
74512;SDS011;62992;52.052;8.550;2023-02-28T17:47:48;6.63;;;3.00;;
74512;SDS011;62992;52.052;8.550;2023-02-28T17:50:36;5.10;;;3.80;;
74512;SDS011;62992;52.052;8.550;2023-02-28T17:53:20;7.35;;;3.65;;
74512;SDS011;62992;52.052;8.550;2023-02-28T17:59:02;4.80;;;2.90;;
74512;SDS011;62992;52.052;8.550;2023-02-28T18:01:46;7.55;;;4.15;;
74512;SDS011;62992;52.052;8.550;2023-02-28T18:04:30;5.75;;;3.55;;
74512;SDS011;62992;52.052;8.550;2023-02-28T18:07:14;6.47;;;4.07;;
74512;SDS011;62992;52.052;8.550;2023-02-28T18:09:59;6.50;;;3.85;;
74512;SDS011;62992;52.052;8.550;2023-02-28T18:12:43;6.78;;;3.50;;
74512;SDS011;62992;52.052;8.550;2023-02-28T18:15:27;8.70;;;4.10;;
74512;SDS011;62992;52.052;8.550;2023-02-28T18:18:10;10.15;;;5.43;;
74512;SDS011;62992;52.052;8.550;2023-02-28T18:20:55;10.35;;;5.22;;
74512;SDS011;62992;52.052;8.550;2023-02-28T18:23:39;8.73;;;5.03;;
74512;SDS011;62992;52.052;8.550;2023-02-28T18:26:35;8.23;;;4.63;;
74512;SDS011;62992;52.052;8.550;2023-02-28T18:29:23;7.30;;;4.60;;
74512;SDS011;62992;52.052;8.550;2023-02-28T18:32:10;7.18;;;4.70;;
74512;SDS011;62992;52.052;8.550;2023-02-28T18:34:54;6.18;;;4.43;;
74512;SDS011;62992;52.052;8.550;2023-02-28T18:37:38;6.93;;;4.15;;
74512;SDS011;62992;52.052;8.550;2023-02-28T18:40:22;10.25;;;4.28;;
74512;SDS011;62992;52.052;8.550;2023-02-28T18:43:06;7.35;;;4.65;;
74512;SDS011;62992;52.052;8.550;2023-02-28T18:45:51;8.57;;;4.63;;
74512;SDS011;62992;52.052;8.550;2023-02-28T18:48:36;7.72;;;4.13;;
74512;SDS011;62992;52.052;8.550;2023-02-28T18:51:21;8.82;;;4.78;;
74512;SDS011;62992;52.052;8.550;2023-02-28T18:54:07;7.47;;;5.00;;
74512;SDS011;62992;52.052;8.550;2023-02-28T18:56:51;11.68;;;5.95;;
74512;SDS011;62992;52.052;8.550;2023-02-28T18:59:36;14.35;;;7.05;;
74512;SDS011;62992;52.052;8.550;2023-02-28T19:02:20;16.73;;;7.55;;
74512;SDS011;62992;52.052;8.550;2023-02-28T19:05:04;27.98;;;11.13;;
74512;SDS011;62992;52.052;8.550;2023-02-28T19:07:49;32.85;;;13.25;;
74512;SDS011;62992;52.052;8.550;2023-02-28T19:10:33;51.25;;;16.70;;
74512;SDS011;62992;52.052;8.550;2023-02-28T19:13:20;40.25;;;15.90;;
74512;SDS011;62992;52.052;8.550;2023-02-28T19:16:06;33.60;;;14.07;;
74512;SDS011;62992;52.052;8.550;2023-02-28T19:18:51;25.20;;;9.80;;